createdAt,value
2023-04-24T00:00:52.170Z,13.22
2023-04-24T00:03:29.174Z,13.16
2023-04-24T00:05:57.469Z,13.17
2023-04-24T00:08:25.487Z,13.25
2023-04-24T00:10:53.965Z,13.29
2023-04-24T00:13:21.887Z,13.34
2023-04-24T00:15:49.857Z,13.39
2023-04-24T00:18:18.334Z,13.39
2023-04-24T00:20:46.212Z,13.39
2023-04-24T00:23:14.305Z,13.38
2023-04-24T00:25:42.167Z,13.40
2023-04-24T00:28:10.337Z,13.45
2023-04-24T00:30:38.304Z,13.50
2023-04-24T00:33:06.681Z,13.52
2023-04-24T00:35:34.649Z,13.54
2023-04-24T00:38:02.564Z,13.55
2023-04-24T00:40:31.184Z,13.52
2023-04-24T00:42:59.568Z,13.53
2023-04-24T00:45:27.576Z,13.56
2023-04-24T00:47:55.676Z,13.52
2023-04-24T00:50:25.227Z,13.49
2023-04-24T00:52:53.901Z,13.43
2023-04-24T00:55:22.200Z,13.39
2023-04-24T00:57:50.495Z,13.32
2023-04-24T01:00:18.797Z,13.28
2023-04-24T01:02:47.449Z,13.23
2023-04-24T01:05:16.660Z,13.21
2023-04-24T01:07:46.803Z,13.21
2023-04-24T01:10:16.015Z,13.20
2023-04-24T01:12:44.037Z,13.17
2023-04-24T01:15:14.221Z,13.16
2023-04-24T01:17:43.963Z,13.24
2023-04-24T01:20:12.568Z,13.31
2023-04-24T01:22:41.550Z,13.32
2023-04-24T01:25:10.119Z,13.29
2023-04-24T01:27:38.433Z,13.24
2023-04-24T01:30:08.597Z,13.13
2023-04-24T01:32:38.003Z,13.06
2023-04-24T01:35:07.025Z,13.03
2023-04-24T01:37:35.055Z,13.08
2023-04-24T01:40:04.602Z,13.10
2023-04-24T01:42:32.620Z,13.14
2023-04-24T01:45:01.632Z,13.12
2023-04-24T01:47:32.951Z,13.12
2023-04-24T01:50:00.975Z,13.09
2023-04-24T01:52:32.188Z,13.02
2023-04-24T01:55:08.148Z,12.91
2023-04-24T01:57:36.493Z,12.88
2023-04-24T02:00:06.327Z,12.89
2023-04-24T02:02:43.110Z,12.89
2023-04-24T02:05:12.401Z,12.90
2023-04-24T02:07:41.042Z,12.91
2023-04-24T02:10:10.706Z,12.91
2023-04-24T02:12:43.504Z,12.97
2023-04-24T02:15:11.968Z,12.98
2023-04-24T02:17:40.070Z,13.01
2023-04-24T02:20:08.786Z,13.08
2023-04-24T02:22:36.708Z,13.16
2023-04-24T02:25:04.923Z,13.21
2023-04-24T02:27:32.795Z,13.20
2023-04-24T02:30:00.727Z,13.16
2023-04-24T02:32:28.917Z,13.13
2023-04-24T02:34:56.905Z,13.08
2023-04-24T02:37:25.080Z,12.99
2023-04-24T02:39:53.145Z,12.93
2023-04-24T02:42:21.082Z,12.90
2023-04-24T02:44:48.971Z,12.92
2023-04-24T02:47:16.929Z,12.94
2023-04-24T02:49:45.117Z,12.94
2023-04-24T02:52:13.254Z,13.01
2023-04-24T02:54:41.220Z,13.07
2023-04-24T02:57:09.200Z,13.03
2023-04-24T02:59:38.254Z,12.99
2023-04-24T03:02:06.829Z,13.00
2023-04-24T03:04:34.854Z,13.01
2023-04-24T03:07:03.056Z,13.04
2023-04-24T03:09:31.015Z,13.06
2023-04-24T03:11:59.434Z,13.09
2023-04-24T03:14:27.303Z,13.07
2023-04-24T03:16:55.237Z,13.04
2023-04-24T03:19:23.126Z,13.02
2023-04-24T03:22:05.389Z,12.99
2023-04-24T03:24:33.975Z,13.00
2023-04-24T03:27:02.223Z,12.99
2023-04-24T03:29:47.177Z,12.97
2023-04-24T03:32:15.546Z,12.97
2023-04-24T03:34:43.543Z,12.88
2023-04-24T03:37:13.205Z,12.80
2023-04-24T03:39:43.032Z,12.74
2023-04-24T03:42:11.940Z,12.69
2023-04-24T03:44:49.382Z,12.64
2023-04-24T03:47:17.828Z,12.60
2023-04-24T03:49:46.400Z,12.60
2023-04-24T03:52:14.373Z,12.58
2023-04-24T03:54:42.903Z,12.57
2023-04-24T03:57:10.992Z,12.46
2023-04-24T03:59:41.359Z,12.31
2023-04-24T04:02:17.326Z,12.19
2023-04-24T04:04:45.901Z,12.15
2023-04-24T04:07:14.160Z,12.11
2023-04-24T04:09:42.476Z,12.09
2023-04-24T04:12:10.733Z,12.09
2023-04-24T04:14:39.915Z,12.16
2023-04-24T04:17:08.207Z,12.16
2023-04-24T04:19:36.193Z,12.24
2023-04-24T04:22:04.549Z,12.35
2023-04-24T04:24:41.692Z,12.43
2023-04-24T04:27:10.195Z,12.48
2023-04-24T04:29:46.121Z,12.51
2023-04-24T04:32:16.609Z,12.51
2023-04-24T04:34:46.553Z,12.53
2023-04-24T04:37:15.587Z,12.54
2023-04-24T04:39:49.741Z,12.55
2023-04-24T04:42:21.199Z,12.66
2023-04-24T04:44:49.111Z,12.69
2023-04-24T04:47:27.734Z,12.73
2023-04-24T04:49:56.703Z,12.77
2023-04-24T04:52:27.739Z,12.85
2023-04-24T04:55:10.304Z,12.86
2023-04-24T04:58:10.663Z,12.85
2023-04-24T05:00:38.991Z,12.87
2023-04-24T05:03:27.287Z,12.90
2023-04-24T05:06:00.204Z,13.02
2023-04-24T05:08:28.836Z,13.11
2023-04-24T05:10:57.126Z,13.23
2023-04-24T05:13:36.207Z,13.34
2023-04-24T05:16:09.144Z,13.40
2023-04-24T05:18:37.529Z,13.48
2023-04-24T05:21:07.155Z,13.53
2023-04-24T05:23:35.772Z,13.56
2023-04-24T05:26:05.556Z,13.67
2023-04-24T05:28:34.961Z,13.75
2023-04-24T05:31:07.628Z,13.91
2023-04-24T05:33:36.258Z,14.07
2023-04-24T05:36:06.538Z,14.15
2023-04-24T05:38:34.704Z,14.23
2023-04-24T05:41:02.757Z,14.34
2023-04-24T05:43:30.808Z,14.43
2023-04-24T05:45:58.844Z,14.46
2023-04-24T05:48:27.194Z,14.53
2023-04-24T05:50:55.155Z,14.53
2023-04-24T05:53:23.177Z,14.54
2023-04-24T05:55:51.126Z,14.51
2023-04-24T05:58:19.103Z,14.45
2023-04-24T06:00:47.800Z,14.51
2023-04-24T06:03:16.961Z,14.59
2023-04-24T06:05:45.210Z,14.65
2023-04-24T06:08:13.269Z,14.66
2023-04-24T06:10:42.374Z,14.71
2023-04-24T06:13:10.887Z,14.70
2023-04-24T06:15:41.780Z,14.69
2023-04-24T06:18:13.778Z,14.71
2023-04-24T06:20:42.056Z,14.81
2023-04-24T06:23:10.909Z,14.88
2023-04-24T06:25:39.883Z,14.92
2023-04-24T06:28:07.878Z,14.99
2023-04-24T06:30:37.020Z,15.07
2023-04-24T06:33:16.774Z,15.09
2023-04-24T06:35:47.771Z,15.15
2023-04-24T06:38:17.055Z,15.27
2023-04-24T06:40:45.605Z,15.30
2023-04-24T06:43:13.484Z,15.31
2023-04-24T06:45:41.871Z,15.33
2023-04-24T06:48:09.799Z,15.40
2023-04-24T06:50:37.834Z,15.49
2023-04-24T06:53:05.738Z,15.54
2023-04-24T06:55:33.764Z,15.64
2023-04-24T06:58:01.712Z,15.79
2023-04-24T07:00:31.077Z,15.90
2023-04-24T07:02:59.115Z,15.96
2023-04-24T07:05:27.363Z,16.11
2023-04-24T07:07:55.224Z,16.18
2023-04-24T07:10:23.208Z,16.19
2023-04-24T07:12:51.277Z,16.20
2023-04-24T07:15:19.143Z,16.23
2023-04-24T07:17:47.280Z,16.32
2023-04-24T07:20:15.863Z,16.49
2023-04-24T07:22:43.886Z,16.67
2023-04-24T07:25:11.930Z,16.85
2023-04-24T07:27:39.868Z,17.00
2023-04-24T07:30:08.374Z,17.11
2023-04-24T07:32:36.323Z,17.23
2023-04-24T07:35:04.933Z,17.30
2023-04-24T07:37:32.841Z,17.38
2023-04-24T07:40:00.721Z,17.37
2023-04-24T07:42:31.523Z,17.44
2023-04-24T07:45:00.918Z,17.54
2023-04-24T07:47:28.919Z,17.65
2023-04-24T07:49:56.931Z,17.71
2023-04-24T07:52:25.237Z,17.64
2023-04-24T07:54:59.416Z,17.52
2023-04-24T07:57:27.371Z,17.42
2023-04-24T07:59:56.424Z,17.43
2023-04-24T08:02:27.898Z,17.50
2023-04-24T08:04:57.719Z,17.58
2023-04-24T08:07:27.556Z,17.62
2023-04-24T08:09:55.623Z,17.65
2023-04-24T08:12:23.550Z,17.68
2023-04-24T08:14:51.732Z,17.69
2023-04-24T08:17:19.536Z,17.73
2023-04-24T08:19:49.384Z,17.89
2023-04-24T08:22:17.754Z,18.08
2023-04-24T08:24:45.804Z,18.15
2023-04-24T08:27:13.776Z,18.21
2023-04-24T08:29:42.021Z,18.30
2023-04-24T08:32:10.469Z,18.36
2023-04-24T08:34:38.372Z,18.38
2023-04-24T08:37:06.224Z,18.40
2023-04-24T08:39:34.382Z,18.39
2023-04-24T08:42:06.477Z,18.47
2023-04-24T08:44:36.813Z,18.53
2023-04-24T08:47:06.291Z,18.51
2023-04-24T08:49:34.416Z,18.42
2023-04-24T08:52:03.666Z,18.39
2023-04-24T08:54:33.213Z,18.38
2023-04-24T08:57:02.591Z,18.53
2023-04-24T08:59:32.260Z,18.65
2023-04-24T09:02:01.156Z,18.76
2023-04-24T09:04:30.634Z,18.83
2023-04-24T09:06:59.568Z,18.89
2023-04-24T09:09:31.560Z,19.01
2023-04-24T09:11:59.711Z,19.07
2023-04-24T09:14:29.199Z,19.14
2023-04-24T09:16:57.349Z,19.22
2023-04-24T09:19:25.273Z,19.31
2023-04-24T09:21:54.299Z,19.32
2023-04-24T09:24:26.163Z,19.32
2023-04-24T09:27:02.503Z,19.36
2023-04-24T09:29:31.009Z,19.59
2023-04-24T09:31:58.988Z,19.95
2023-04-24T09:34:28.524Z,20.21
2023-04-24T09:36:56.819Z,20.41
2023-04-24T09:39:24.758Z,20.57
2023-04-24T09:41:58.505Z,20.59
2023-04-24T09:44:28.471Z,20.66
2023-04-24T09:46:58.603Z,20.83
2023-04-24T09:49:27.455Z,20.98
2023-04-24T09:52:12.090Z,21.14
2023-04-24T09:54:40.818Z,21.16
2023-04-24T09:57:10.142Z,21.11
2023-04-24T09:59:44.617Z,21.14
2023-04-24T10:02:23.925Z,21.18
2023-04-24T10:04:57.890Z,21.32
2023-04-24T10:07:28.892Z,21.36
2023-04-24T10:09:57.433Z,21.33
2023-04-24T10:12:26.303Z,21.21
2023-04-24T10:14:55.364Z,21.11
2023-04-24T10:17:25.826Z,21.08
2023-04-24T10:19:53.883Z,21.03
2023-04-24T10:22:23.976Z,21.04
2023-04-24T10:24:53.223Z,20.96
2023-04-24T10:27:22.723Z,20.93
2023-04-24T10:29:54.271Z,21.03
2023-04-24T10:32:22.308Z,21.10
2023-04-24T10:34:50.538Z,21.02
2023-04-24T10:37:19.078Z,20.99
2023-04-24T10:39:49.881Z,21.02
2023-04-24T10:42:18.254Z,21.11
2023-04-24T10:44:50.129Z,21.21
2023-04-24T10:47:18.177Z,21.09
2023-04-24T10:49:46.587Z,20.97
2023-04-24T10:52:15.356Z,20.93
2023-04-24T10:54:47.628Z,20.87
2023-04-24T10:57:21.519Z,20.83
2023-04-24T11:00:11.169Z,20.90
2023-04-24T11:02:41.382Z,21.02
2023-04-24T11:05:12.146Z,21.12
2023-04-24T11:08:17.717Z,21.37
2023-04-24T11:10:47.276Z,21.64
2023-04-24T11:13:17.258Z,21.75
2023-04-24T11:15:45.211Z,21.73
2023-04-24T11:18:17.076Z,21.76
2023-04-24T11:20:45.905Z,21.85
2023-04-24T11:23:15.267Z,21.99
2023-04-24T11:25:43.997Z,22.03
2023-04-24T11:28:17.518Z,22.11
2023-04-24T11:30:45.559Z,22.21
2023-04-24T11:33:22.485Z,22.21
2023-04-24T11:35:52.547Z,22.28
2023-04-24T11:38:24.690Z,22.33
2023-04-24T11:40:54.430Z,22.29
2023-04-24T11:43:23.156Z,22.43
2023-04-24T11:45:51.246Z,22.52
2023-04-24T11:48:22.947Z,22.66
2023-04-24T11:50:51.947Z,22.67
2023-04-24T11:53:22.621Z,22.64
2023-04-24T11:55:50.564Z,22.44
2023-04-24T11:58:23.014Z,22.26
2023-04-24T12:00:59.551Z,22.01
2023-04-24T12:03:27.880Z,21.68
2023-04-24T12:06:09.628Z,21.38
2023-04-24T12:08:38.619Z,21.06
2023-04-24T12:11:08.337Z,20.91
2023-04-24T12:13:37.541Z,20.70
2023-04-24T12:16:06.557Z,20.42
2023-04-24T12:18:34.756Z,20.19
2023-04-24T12:21:23.910Z,20.05
2023-04-24T12:23:52.073Z,19.89
2023-04-24T12:26:21.131Z,19.79
2023-04-24T12:28:50.763Z,19.70
2023-04-24T12:31:18.920Z,19.58
2023-04-24T12:33:46.971Z,19.48
2023-04-24T12:36:15.132Z,19.37
2023-04-24T12:38:47.528Z,19.29
2023-04-24T12:41:15.946Z,19.19
2023-04-24T12:43:54.216Z,19.13
2023-04-24T12:46:22.799Z,19.07
2023-04-24T12:48:51.365Z,19.05
2023-04-24T12:51:19.259Z,19.06
2023-04-24T12:53:47.222Z,19.11
2023-04-24T12:56:15.106Z,19.15
2023-04-24T12:58:42.900Z,19.17
2023-04-24T13:01:11.272Z,19.18
2023-04-24T13:03:39.404Z,19.18
2023-04-24T13:06:07.873Z,19.22
2023-04-24T13:08:35.807Z,19.25
2023-04-24T13:11:03.927Z,19.21
2023-04-24T13:13:32.256Z,19.21
2023-04-24T13:16:00.135Z,19.22
2023-04-24T13:18:28.124Z,19.19
2023-04-24T13:20:56.875Z,19.19
2023-04-24T13:23:24.759Z,19.19
2023-04-24T13:25:52.696Z,19.14
2023-04-24T13:28:20.572Z,19.08
2023-04-24T13:30:51.700Z,19.07
2023-04-24T13:33:20.384Z,19.17
2023-04-24T13:35:48.253Z,19.36
2023-04-24T13:38:16.214Z,19.48
2023-04-24T13:40:44.172Z,19.49
2023-04-24T13:43:12.098Z,19.47
2023-04-24T13:45:40.123Z,19.52
2023-04-24T13:48:09.966Z,19.54
2023-04-24T13:50:38.018Z,19.56
2023-04-24T13:53:06.109Z,19.51
2023-04-24T13:55:34.118Z,19.54
2023-04-24T13:58:02.447Z,19.55
2023-04-24T14:00:30.551Z,19.55
2023-04-24T14:02:58.502Z,19.41
2023-04-24T14:05:26.728Z,19.37
2023-04-24T14:07:54.709Z,19.30
2023-04-24T14:10:22.542Z,19.13
2023-04-24T14:12:50.571Z,18.93
2023-04-24T14:15:18.916Z,18.78
2023-04-24T14:17:46.840Z,18.65
2023-04-24T14:20:14.856Z,18.49
2023-04-24T14:22:43.140Z,18.36
2023-04-24T14:25:11.238Z,18.19
2023-04-24T14:27:39.274Z,18.00
2023-04-24T14:30:08.789Z,17.82
2023-04-24T14:32:37.219Z,17.69
2023-04-24T14:35:06.676Z,17.65
2023-04-24T14:37:34.622Z,17.60
2023-04-24T14:40:15.880Z,17.56
2023-04-24T14:42:51.700Z,17.52
2023-04-24T14:45:19.773Z,17.45
2023-04-24T14:47:47.814Z,17.39
2023-04-24T14:50:16.175Z,17.32
2023-04-24T14:52:44.118Z,17.26
2023-04-24T14:55:11.941Z,17.17
2023-04-24T14:57:40.409Z,17.01
2023-04-24T15:00:11.182Z,16.97
2023-04-24T15:02:43.014Z,16.87
2023-04-24T15:05:12.556Z,16.67
2023-04-24T15:07:42.758Z,16.55
2023-04-24T15:10:11.275Z,16.49
2023-04-24T15:12:39.827Z,16.34
2023-04-24T15:15:08.960Z,16.16
2023-04-24T15:17:36.928Z,15.96
2023-04-24T15:20:07.382Z,15.85
2023-04-24T15:22:35.472Z,15.80
2023-04-24T15:25:04.078Z,15.79
2023-04-24T15:27:42.937Z,15.84
2023-04-24T15:30:12.427Z,15.87
2023-04-24T15:32:40.475Z,15.95
2023-04-24T15:35:10.381Z,16.01
2023-04-24T15:37:39.671Z,16.08
2023-04-24T15:40:08.680Z,16.15
2023-04-24T15:42:36.837Z,16.21
2023-04-24T15:45:04.895Z,16.23
2023-04-24T15:47:36.520Z,16.24
2023-04-24T15:50:05.321Z,16.29
2023-04-24T15:52:33.252Z,16.31
2023-04-24T15:55:01.247Z,16.31
2023-04-24T15:57:29.102Z,16.34
2023-04-24T15:59:57.149Z,16.33
2023-04-24T16:02:25.540Z,16.29
2023-04-24T16:04:54.931Z,16.25
2023-04-24T16:07:23.036Z,16.24
2023-04-24T16:09:50.970Z,16.18
2023-04-24T16:12:19.882Z,16.11
2023-04-24T16:14:47.899Z,16.04
2023-04-24T16:17:15.775Z,16.02
2023-04-24T16:19:43.676Z,15.97
2023-04-24T16:22:11.591Z,15.87
2023-04-24T16:24:39.444Z,15.82
2023-04-24T16:27:07.334Z,15.79
2023-04-24T16:29:35.348Z,15.66
2023-04-24T16:32:03.177Z,15.51
2023-04-24T16:34:31.111Z,15.42
2023-04-24T16:36:59.081Z,15.34
2023-04-24T16:39:28.171Z,15.23
2023-04-24T16:41:59.121Z,15.20
2023-04-24T16:44:28.271Z,15.19
2023-04-24T16:46:56.859Z,15.15
2023-04-24T16:49:25.138Z,15.15
2023-04-24T16:51:53.022Z,15.16
2023-04-24T16:54:21.017Z,15.15
2023-04-24T16:56:49.408Z,15.14
2023-04-24T16:59:17.350Z,15.09
2023-04-24T17:01:45.593Z,15.00
2023-04-24T17:04:13.681Z,14.91
2023-04-24T17:06:41.794Z,14.83
2023-04-24T17:09:09.751Z,14.74
2023-04-24T17:11:37.626Z,14.67
2023-04-24T17:14:06.359Z,14.58
2023-04-24T17:16:34.705Z,14.54
2023-04-24T17:19:02.663Z,14.52
2023-04-24T17:21:31.714Z,14.45
2023-04-24T17:23:59.786Z,14.39
2023-04-24T17:26:28.745Z,14.28
2023-04-24T17:28:56.722Z,14.21
2023-04-24T17:31:24.722Z,14.16
2023-04-24T17:33:52.611Z,14.08
2023-04-24T17:36:20.523Z,14.00
2023-04-24T17:38:48.747Z,13.95
2023-04-24T17:41:17.216Z,13.91
2023-04-24T17:43:45.886Z,13.87
2023-04-24T17:46:13.887Z,13.86
2023-04-24T17:48:42.160Z,13.71
2023-04-24T17:51:10.114Z,13.60
2023-04-24T17:53:38.068Z,13.56
2023-04-24T17:56:07.422Z,13.50
2023-04-24T17:58:36.095Z,13.43
2023-04-24T18:01:03.976Z,13.40
2023-04-24T18:03:31.972Z,13.43
2023-04-24T18:06:00.215Z,13.42
2023-04-24T18:08:28.123Z,13.41
2023-04-24T18:10:56.034Z,13.34
2023-04-24T18:13:24.145Z,13.25
2023-04-24T18:15:52.161Z,13.18
2023-04-24T18:18:20.261Z,13.13
2023-04-24T18:20:48.113Z,13.08
2023-04-24T18:23:16.133Z,13.09
2023-04-24T18:25:44.162Z,13.07
2023-04-24T18:28:12.172Z,13.06
2023-04-24T18:30:40.202Z,13.05
2023-04-24T18:33:08.131Z,13.05
2023-04-24T18:35:36.129Z,12.99
2023-04-24T18:38:04.144Z,12.93
2023-04-24T18:40:32.086Z,12.88
2023-04-24T18:42:59.914Z,12.84
2023-04-24T18:45:27.919Z,12.81
2023-04-24T18:47:55.770Z,12.77
2023-04-24T18:50:25.820Z,12.73
2023-04-24T18:52:53.900Z,12.74
2023-04-24T18:55:21.911Z,12.78
2023-04-24T18:57:49.812Z,12.80
2023-04-24T19:00:19.108Z,12.78
2023-04-24T19:02:47.622Z,12.76
2023-04-24T19:05:16.435Z,12.77
2023-04-24T19:07:44.706Z,12.76
2023-04-24T19:10:13.310Z,12.73
2023-04-24T19:12:41.266Z,12.71
2023-04-24T19:15:13.095Z,12.70
2023-04-24T19:17:41.119Z,12.65
2023-04-24T19:20:09.578Z,12.66
2023-04-24T19:22:37.536Z,12.61
2023-04-24T19:25:05.922Z,12.62
2023-04-24T19:27:33.949Z,12.57
2023-04-24T19:30:01.777Z,12.54
2023-04-24T19:32:30.910Z,12.53
2023-04-24T19:34:58.860Z,12.50
2023-04-24T19:37:27.358Z,12.47
2023-04-24T19:39:55.372Z,12.47
2023-04-24T19:42:31.819Z,12.43
2023-04-24T19:45:14.195Z,12.40
2023-04-24T19:47:42.459Z,12.39
2023-04-24T19:50:10.563Z,12.38
2023-04-24T19:52:38.610Z,12.36
2023-04-24T19:55:07.076Z,12.33
2023-04-24T19:57:35.076Z,12.33
2023-04-24T20:00:04.103Z,12.31
2023-04-24T20:02:33.194Z,12.31
2023-04-24T20:05:01.983Z,12.27
2023-04-24T20:07:30.021Z,12.29
2023-04-24T20:09:58.042Z,12.25
2023-04-24T20:12:26.132Z,12.23
2023-04-24T20:14:53.996Z,12.21
2023-04-24T20:17:22.013Z,12.19
2023-04-24T20:19:49.890Z,12.15
2023-04-24T20:22:18.029Z,12.05
2023-04-24T20:24:46.022Z,11.97
2023-04-24T20:27:14.641Z,11.98
2023-04-24T20:29:42.862Z,11.94
2023-04-24T20:32:10.881Z,11.92
2023-04-24T20:34:38.879Z,11.87
2023-04-24T20:37:06.804Z,11.80
2023-04-24T20:39:34.777Z,11.73
2023-04-24T20:42:02.640Z,11.71
2023-04-24T20:44:31.517Z,11.61
2023-04-24T20:46:59.676Z,11.55
2023-04-24T20:49:27.567Z,11.52
2023-04-24T20:51:55.581Z,11.46
2023-04-24T20:54:23.513Z,11.42
2023-04-24T20:56:51.522Z,11.38
2023-04-24T20:59:19.559Z,11.38
2023-04-24T21:01:48.805Z,11.34
2023-04-24T21:04:17.194Z,11.28
2023-04-24T21:06:45.554Z,11.25
2023-04-24T21:09:13.500Z,11.23
2023-04-24T21:11:41.758Z,11.26
2023-04-24T21:14:10.608Z,11.25
2023-04-24T21:16:38.583Z,11.24
2023-04-24T21:19:06.595Z,11.27
2023-04-24T21:21:34.535Z,11.28
2023-04-24T21:24:04.476Z,11.29
2023-04-24T21:26:32.444Z,11.29
2023-04-24T21:29:00.509Z,11.35
2023-04-24T21:31:28.436Z,11.35
2023-04-24T21:33:56.439Z,11.35
2023-04-24T21:36:24.273Z,11.35
2023-04-24T21:38:52.227Z,11.35
2023-04-24T21:41:20.477Z,11.31
2023-04-24T21:43:50.565Z,11.27
2023-04-24T21:46:19.184Z,11.19
2023-04-24T21:48:47.090Z,11.16
2023-04-24T21:51:16.622Z,11.13
2023-04-24T21:53:44.578Z,11.10
2023-04-24T21:56:12.691Z,11.08
2023-04-24T21:58:41.209Z,11.01
2023-04-24T22:01:09.585Z,11.01
2023-04-24T22:03:38.052Z,11.01
2023-04-24T22:06:06.311Z,11.00
2023-04-24T22:08:34.236Z,11.00
2023-04-24T22:11:03.243Z,10.93
2023-04-24T22:13:31.357Z,10.90
2023-04-24T22:15:59.228Z,10.86
2023-04-24T22:18:33.584Z,10.86
2023-04-24T22:21:08.534Z,10.87
2023-04-24T22:23:36.551Z,10.80
2023-04-24T22:26:04.411Z,10.76
2023-04-24T22:28:32.288Z,10.75
2023-04-24T22:31:00.301Z,10.71
2023-04-24T22:33:28.231Z,10.67
2023-04-24T22:35:56.359Z,10.62
2023-04-24T22:38:25.116Z,10.64
2023-04-24T22:40:53.627Z,10.58
2023-04-24T22:43:21.701Z,10.50
2023-04-24T22:45:50.017Z,10.51
2023-04-24T22:48:18.491Z,10.49
2023-04-24T22:50:46.732Z,10.38
2023-04-24T22:53:14.680Z,10.32
2023-04-24T22:55:42.593Z,10.24
2023-04-24T22:58:10.908Z,10.24
2023-04-24T23:00:38.802Z,10.22
2023-04-24T23:03:07.030Z,10.20
2023-04-24T23:05:35.128Z,10.12
2023-04-24T23:08:03.006Z,10.01
2023-04-24T23:10:31.026Z,10.00
2023-04-24T23:12:58.889Z,9.99
2023-04-24T23:15:26.804Z,9.95
2023-04-24T23:17:54.682Z,9.86
2023-04-24T23:20:22.812Z,9.79
2023-04-24T23:22:50.992Z,9.73
2023-04-24T23:25:19.038Z,9.71
2023-04-24T23:27:46.915Z,9.67
2023-04-24T23:30:14.852Z,9.61
2023-04-24T23:32:44.393Z,9.57
2023-04-24T23:35:12.423Z,9.52
2023-04-24T23:37:40.331Z,9.49
2023-04-24T23:40:12.286Z,9.44
2023-04-24T23:42:40.148Z,9.40
2023-04-24T23:45:10.742Z,9.38
2023-04-24T23:47:38.789Z,9.36
2023-04-24T23:50:07.665Z,9.35
2023-04-24T23:52:36.137Z,9.30
2023-04-24T23:55:05.035Z,9.26
2023-04-24T23:57:32.909Z,9.24
